sensor_id;sensor_type;location;lat;lon;timestamp;P1;durP1;ratioP1;P2;durP2;ratioP2
16839;SDS011;8536;52.150;11.572;2022-12-07T00:01:07;14.73;;;10.47;;
16839;SDS011;8536;52.150;11.572;2022-12-07T00:03:35;17.43;;;11.27;;
16839;SDS011;8536;52.150;11.572;2022-12-07T00:06:03;15.93;;;10.50;;
16839;SDS011;8536;52.150;11.572;2022-12-07T00:08:31;15.60;;;10.83;;
16839;SDS011;8536;52.150;11.572;2022-12-07T00:11:02;16.50;;;10.87;;
16839;SDS011;8536;52.150;11.572;2022-12-07T00:13:30;16.67;;;11.40;;
16839;SDS011;8536;52.150;11.572;2022-12-07T00:16:04;18.23;;;12.07;;
16839;SDS011;8536;52.150;11.572;2022-12-07T00:18:35;17.13;;;11.27;;
16839;SDS011;8536;52.150;11.572;2022-12-07T00:21:03;18.30;;;11.60;;
16839;SDS011;8536;52.150;11.572;2022-12-07T00:23:31;17.97;;;11.37;;
16839;SDS011;8536;52.150;11.572;2022-12-07T00:26:05;16.67;;;11.23;;
16839;SDS011;8536;52.150;11.572;2022-12-07T00:28:35;16.63;;;11.53;;
16839;SDS011;8536;52.150;11.572;2022-12-07T00:31:11;18.77;;;11.13;;
16839;SDS011;8536;52.150;11.572;2022-12-07T00:33:39;14.27;;;10.00;;
16839;SDS011;8536;52.150;11.572;2022-12-07T00:36:07;16.87;;;11.23;;
16839;SDS011;8536;52.150;11.572;2022-12-07T00:38:36;16.07;;;10.77;;
16839;SDS011;8536;52.150;11.572;2022-12-07T00:41:08;15.70;;;10.10;;
16839;SDS011;8536;52.150;11.572;2022-12-07T00:43:37;16.63;;;10.67;;
16839;SDS011;8536;52.150;11.572;2022-12-07T00:46:03;17.20;;;10.83;;
16839;SDS011;8536;52.150;11.572;2022-12-07T00:48:30;16.77;;;10.47;;
16839;SDS011;8536;52.150;11.572;2022-12-07T00:50:57;14.53;;;10.70;;
16839;SDS011;8536;52.150;11.572;2022-12-07T00:53:24;16.57;;;11.00;;
16839;SDS011;8536;52.150;11.572;2022-12-07T00:55:50;16.60;;;11.07;;
16839;SDS011;8536;52.150;11.572;2022-12-07T00:58:19;15.40;;;10.40;;
16839;SDS011;8536;52.150;11.572;2022-12-07T01:00:45;17.30;;;10.50;;
16839;SDS011;8536;52.150;11.572;2022-12-07T01:03:12;17.27;;;10.77;;
16839;SDS011;8536;52.150;11.572;2022-12-07T01:05:40;14.33;;;9.70;;
16839;SDS011;8536;52.150;11.572;2022-12-07T01:08:06;14.10;;;9.77;;
16839;SDS011;8536;52.150;11.572;2022-12-07T01:10:33;14.73;;;10.03;;
16839;SDS011;8536;52.150;11.572;2022-12-07T01:12:59;15.10;;;10.30;;
16839;SDS011;8536;52.150;11.572;2022-12-07T01:15:26;12.17;;;8.87;;
16839;SDS011;8536;52.150;11.572;2022-12-07T01:17:53;13.97;;;9.37;;
16839;SDS011;8536;52.150;11.572;2022-12-07T01:20:20;14.43;;;9.80;;
16839;SDS011;8536;52.150;11.572;2022-12-07T01:22:47;14.00;;;9.60;;
16839;SDS011;8536;52.150;11.572;2022-12-07T01:25:14;14.23;;;9.87;;
16839;SDS011;8536;52.150;11.572;2022-12-07T01:27:40;14.13;;;9.33;;
16839;SDS011;8536;52.150;11.572;2022-12-07T01:30:07;10.73;;;8.07;;
16839;SDS011;8536;52.150;11.572;2022-12-07T01:32:35;12.00;;;8.47;;
16839;SDS011;8536;52.150;11.572;2022-12-07T01:35:02;13.57;;;9.87;;
16839;SDS011;8536;52.150;11.572;2022-12-07T01:37:33;11.87;;;8.27;;
16839;SDS011;8536;52.150;11.572;2022-12-07T01:40:03;12.03;;;9.07;;
16839;SDS011;8536;52.150;11.572;2022-12-07T01:42:33;12.83;;;9.40;;
16839;SDS011;8536;52.150;11.572;2022-12-07T01:48:06;14.83;;;10.00;;
16839;SDS011;8536;52.150;11.572;2022-12-07T01:50:34;13.97;;;9.83;;
16839;SDS011;8536;52.150;11.572;2022-12-07T01:53:01;14.07;;;10.17;;
16839;SDS011;8536;52.150;11.572;2022-12-07T01:55:30;14.27;;;10.27;;
16839;SDS011;8536;52.150;11.572;2022-12-07T01:57:57;13.03;;;9.37;;
16839;SDS011;8536;52.150;11.572;2022-12-07T02:00:23;18.00;;;10.53;;
16839;SDS011;8536;52.150;11.572;2022-12-07T02:02:55;16.03;;;10.83;;
16839;SDS011;8536;52.150;11.572;2022-12-07T02:05:24;15.50;;;10.60;;
16839;SDS011;8536;52.150;11.572;2022-12-07T02:07:53;16.50;;;11.03;;
16839;SDS011;8536;52.150;11.572;2022-12-07T02:10:23;14.40;;;10.33;;
16839;SDS011;8536;52.150;11.572;2022-12-07T02:12:52;14.03;;;10.27;;
16839;SDS011;8536;52.150;11.572;2022-12-07T02:15:20;14.87;;;10.00;;
16839;SDS011;8536;52.150;11.572;2022-12-07T02:17:55;14.00;;;10.63;;
16839;SDS011;8536;52.150;11.572;2022-12-07T02:20:33;12.43;;;9.63;;
16839;SDS011;8536;52.150;11.572;2022-12-07T02:30:52;14.93;;;11.17;;
16839;SDS011;8536;52.150;11.572;2022-12-07T02:33:24;16.27;;;11.43;;
16839;SDS011;8536;52.150;11.572;2022-12-07T02:35:59;17.17;;;11.43;;
16839;SDS011;8536;52.150;11.572;2022-12-07T02:38:35;17.57;;;11.67;;
16839;SDS011;8536;52.150;11.572;2022-12-07T02:43:52;16.87;;;10.87;;
16839;SDS011;8536;52.150;11.572;2022-12-07T02:46:22;17.37;;;11.60;;
16839;SDS011;8536;52.150;11.572;2022-12-07T02:48:51;19.53;;;12.00;;
16839;SDS011;8536;52.150;11.572;2022-12-07T02:51:18;15.37;;;11.17;;
16839;SDS011;8536;52.150;11.572;2022-12-07T02:53:45;19.63;;;12.37;;
16839;SDS011;8536;52.150;11.572;2022-12-07T02:58:59;16.37;;;11.50;;
16839;SDS011;8536;52.150;11.572;2022-12-07T03:04:19;18.47;;;12.20;;
16839;SDS011;8536;52.150;11.572;2022-12-07T03:09:43;19.50;;;11.97;;
16839;SDS011;8536;52.150;11.572;2022-12-07T03:12:17;18.63;;;12.27;;
16839;SDS011;8536;52.150;11.572;2022-12-07T03:14:49;18.90;;;12.67;;
16839;SDS011;8536;52.150;11.572;2022-12-07T03:17:23;19.33;;;12.87;;
16839;SDS011;8536;52.150;11.572;2022-12-07T03:19:51;20.40;;;13.03;;
16839;SDS011;8536;52.150;11.572;2022-12-07T03:22:20;18.73;;;12.67;;
16839;SDS011;8536;52.150;11.572;2022-12-07T03:24:49;18.87;;;12.33;;
16839;SDS011;8536;52.150;11.572;2022-12-07T03:27:20;17.33;;;11.37;;
16839;SDS011;8536;52.150;11.572;2022-12-07T03:29:50;21.47;;;13.13;;
16839;SDS011;8536;52.150;11.572;2022-12-07T03:32:33;19.77;;;12.27;;
16839;SDS011;8536;52.150;11.572;2022-12-07T03:35:11;17.63;;;11.43;;
16839;SDS011;8536;52.150;11.572;2022-12-07T03:37:47;17.97;;;11.33;;
16839;SDS011;8536;52.150;11.572;2022-12-07T03:40:20;16.10;;;11.03;;
16839;SDS011;8536;52.150;11.572;2022-12-07T03:42:59;17.23;;;11.40;;
16839;SDS011;8536;52.150;11.572;2022-12-07T03:45:33;15.77;;;11.90;;
16839;SDS011;8536;52.150;11.572;2022-12-07T03:53:11;17.03;;;12.47;;
16839;SDS011;8536;52.150;11.572;2022-12-07T03:55:41;19.73;;;12.23;;
16839;SDS011;8536;52.150;11.572;2022-12-07T03:58:10;15.83;;;11.60;;
16839;SDS011;8536;52.150;11.572;2022-12-07T04:00:38;16.83;;;11.73;;
16839;SDS011;8536;52.150;11.572;2022-12-07T04:03:04;17.53;;;11.40;;
16839;SDS011;8536;52.150;11.572;2022-12-07T04:05:31;17.50;;;12.00;;
16839;SDS011;8536;52.150;11.572;2022-12-07T04:07:57;17.53;;;12.60;;
16839;SDS011;8536;52.150;11.572;2022-12-07T04:10:24;19.60;;;12.80;;
16839;SDS011;8536;52.150;11.572;2022-12-07T04:12:50;16.27;;;12.33;;
16839;SDS011;8536;52.150;11.572;2022-12-07T04:15:17;17.00;;;12.40;;
16839;SDS011;8536;52.150;11.572;2022-12-07T04:17:43;18.00;;;12.23;;
16839;SDS011;8536;52.150;11.572;2022-12-07T04:20:10;17.47;;;12.53;;
16839;SDS011;8536;52.150;11.572;2022-12-07T04:22:37;15.63;;;11.83;;
16839;SDS011;8536;52.150;11.572;2022-12-07T04:25:03;16.77;;;12.27;;
16839;SDS011;8536;52.150;11.572;2022-12-07T04:27:30;16.57;;;12.20;;
16839;SDS011;8536;52.150;11.572;2022-12-07T04:29:57;19.00;;;13.03;;
16839;SDS011;8536;52.150;11.572;2022-12-07T04:32:23;19.77;;;14.03;;
16839;SDS011;8536;52.150;11.572;2022-12-07T04:34:50;17.43;;;12.77;;
16839;SDS011;8536;52.150;11.572;2022-12-07T04:37:21;17.80;;;13.03;;
16839;SDS011;8536;52.150;11.572;2022-12-07T04:39:47;17.77;;;13.23;;
16839;SDS011;8536;52.150;11.572;2022-12-07T04:42:14;18.83;;;14.17;;
16839;SDS011;8536;52.150;11.572;2022-12-07T04:44:41;17.90;;;13.20;;
16839;SDS011;8536;52.150;11.572;2022-12-07T04:47:07;16.13;;;12.13;;
16839;SDS011;8536;52.150;11.572;2022-12-07T04:49:34;17.27;;;13.37;;
16839;SDS011;8536;52.150;11.572;2022-12-07T04:52:00;17.13;;;12.93;;
16839;SDS011;8536;52.150;11.572;2022-12-07T04:54:27;15.43;;;12.10;;
16839;SDS011;8536;52.150;11.572;2022-12-07T04:56:53;18.53;;;12.63;;
16839;SDS011;8536;52.150;11.572;2022-12-07T04:59:19;17.87;;;12.93;;
16839;SDS011;8536;52.150;11.572;2022-12-07T05:01:46;16.33;;;13.00;;
16839;SDS011;8536;52.150;11.572;2022-12-07T05:04:12;17.00;;;12.90;;
16839;SDS011;8536;52.150;11.572;2022-12-07T05:06:39;19.90;;;13.67;;
16839;SDS011;8536;52.150;11.572;2022-12-07T05:09:05;16.70;;;12.93;;
16839;SDS011;8536;52.150;11.572;2022-12-07T05:11:32;22.10;;;13.23;;
16839;SDS011;8536;52.150;11.572;2022-12-07T05:14:12;17.33;;;12.53;;
16839;SDS011;8536;52.150;11.572;2022-12-07T05:16:40;15.90;;;12.83;;
16839;SDS011;8536;52.150;11.572;2022-12-07T05:19:08;16.03;;;12.60;;
16839;SDS011;8536;52.150;11.572;2022-12-07T05:21:35;19.83;;;13.40;;
16839;SDS011;8536;52.150;11.572;2022-12-07T05:24:02;17.97;;;12.17;;
16839;SDS011;8536;52.150;11.572;2022-12-07T05:26:29;16.97;;;11.83;;
16839;SDS011;8536;52.150;11.572;2022-12-07T05:28:56;14.20;;;11.47;;
16839;SDS011;8536;52.150;11.572;2022-12-07T05:31:23;18.20;;;12.37;;
16839;SDS011;8536;52.150;11.572;2022-12-07T05:33:51;13.57;;;9.87;;
16839;SDS011;8536;52.150;11.572;2022-12-07T05:36:18;15.70;;;11.17;;
16839;SDS011;8536;52.150;11.572;2022-12-07T05:38:44;13.60;;;11.20;;
16839;SDS011;8536;52.150;11.572;2022-12-07T05:41:12;14.63;;;11.40;;
16839;SDS011;8536;52.150;11.572;2022-12-07T05:43:59;16.03;;;11.90;;
16839;SDS011;8536;52.150;11.572;2022-12-07T05:46:26;14.60;;;11.07;;
16839;SDS011;8536;52.150;11.572;2022-12-07T05:48:53;14.70;;;11.33;;
16839;SDS011;8536;52.150;11.572;2022-12-07T05:51:19;16.97;;;12.30;;
16839;SDS011;8536;52.150;11.572;2022-12-07T05:53:46;16.63;;;11.33;;
16839;SDS011;8536;52.150;11.572;2022-12-07T05:56:12;15.27;;;10.53;;
16839;SDS011;8536;52.150;11.572;2022-12-07T05:58:38;17.13;;;10.37;;
16839;SDS011;8536;52.150;11.572;2022-12-07T06:01:23;12.93;;;9.37;;
16839;SDS011;8536;52.150;11.572;2022-12-07T06:03:50;13.60;;;10.47;;
16839;SDS011;8536;52.150;11.572;2022-12-07T06:06:16;15.13;;;11.23;;
16839;SDS011;8536;52.150;11.572;2022-12-07T06:08:43;13.90;;;10.57;;
16839;SDS011;8536;52.150;11.572;2022-12-07T06:11:09;13.30;;;10.33;;
16839;SDS011;8536;52.150;11.572;2022-12-07T06:13:54;14.90;;;11.30;;
16839;SDS011;8536;52.150;11.572;2022-12-07T06:16:21;15.97;;;10.97;;
16839;SDS011;8536;52.150;11.572;2022-12-07T06:18:47;13.43;;;10.83;;
16839;SDS011;8536;52.150;11.572;2022-12-07T06:21:14;14.97;;;11.37;;
16839;SDS011;8536;52.150;11.572;2022-12-07T06:23:40;12.73;;;10.40;;
16839;SDS011;8536;52.150;11.572;2022-12-07T06:26:07;14.90;;;9.83;;
16839;SDS011;8536;52.150;11.572;2022-12-07T06:28:33;14.87;;;9.37;;
16839;SDS011;8536;52.150;11.572;2022-12-07T06:31:00;11.50;;;8.87;;
16839;SDS011;8536;52.150;11.572;2022-12-07T06:33:27;12.60;;;7.97;;
16839;SDS011;8536;52.150;11.572;2022-12-07T06:35:54;12.03;;;8.23;;
16839;SDS011;8536;52.150;11.572;2022-12-07T06:38:21;14.27;;;8.67;;
16839;SDS011;8536;52.150;11.572;2022-12-07T06:40:47;10.50;;;7.40;;
16839;SDS011;8536;52.150;11.572;2022-12-07T06:43:14;9.83;;;6.60;;
16839;SDS011;8536;52.150;11.572;2022-12-07T06:45:41;13.53;;;6.97;;
16839;SDS011;8536;52.150;11.572;2022-12-07T06:48:07;9.43;;;6.20;;
16839;SDS011;8536;52.150;11.572;2022-12-07T06:50:34;9.10;;;6.17;;
16839;SDS011;8536;52.150;11.572;2022-12-07T06:53:00;9.00;;;5.70;;
16839;SDS011;8536;52.150;11.572;2022-12-07T06:55:27;6.73;;;5.23;;
16839;SDS011;8536;52.150;11.572;2022-12-07T06:57:53;9.77;;;5.63;;
16839;SDS011;8536;52.150;11.572;2022-12-07T07:00:19;6.43;;;5.10;;
16839;SDS011;8536;52.150;11.572;2022-12-07T07:02:47;8.10;;;5.37;;
16839;SDS011;8536;52.150;11.572;2022-12-07T07:05:14;13.40;;;6.30;;
16839;SDS011;8536;52.150;11.572;2022-12-07T07:07:41;8.07;;;4.83;;
16839;SDS011;8536;52.150;11.572;2022-12-07T07:10:28;7.73;;;5.40;;
16839;SDS011;8536;52.150;11.572;2022-12-07T07:12:54;7.87;;;5.83;;
16839;SDS011;8536;52.150;11.572;2022-12-07T07:15:23;9.40;;;5.60;;
16839;SDS011;8536;52.150;11.572;2022-12-07T07:17:49;7.20;;;4.97;;
16839;SDS011;8536;52.150;11.572;2022-12-07T07:20:16;7.10;;;4.70;;
16839;SDS011;8536;52.150;11.572;2022-12-07T07:22:42;6.37;;;4.57;;
16839;SDS011;8536;52.150;11.572;2022-12-07T07:25:08;10.13;;;5.13;;
16839;SDS011;8536;52.150;11.572;2022-12-07T07:27:35;7.77;;;5.20;;
16839;SDS011;8536;52.150;11.572;2022-12-07T07:30:02;6.87;;;5.03;;
16839;SDS011;8536;52.150;11.572;2022-12-07T07:32:29;6.63;;;5.43;;
16839;SDS011;8536;52.150;11.572;2022-12-07T07:34:56;6.60;;;4.80;;
16839;SDS011;8536;52.150;11.572;2022-12-07T07:37:22;5.57;;;4.40;;
16839;SDS011;8536;52.150;11.572;2022-12-07T07:39:49;7.60;;;5.40;;
16839;SDS011;8536;52.150;11.572;2022-12-07T07:42:15;7.37;;;4.60;;
16839;SDS011;8536;52.150;11.572;2022-12-07T07:44:41;7.40;;;5.10;;
16839;SDS011;8536;52.150;11.572;2022-12-07T07:47:08;8.83;;;5.60;;
16839;SDS011;8536;52.150;11.572;2022-12-07T07:49:34;8.63;;;5.20;;
16839;SDS011;8536;52.150;11.572;2022-12-07T07:52:01;7.83;;;5.97;;
16839;SDS011;8536;52.150;11.572;2022-12-07T07:54:27;7.90;;;5.60;;
16839;SDS011;8536;52.150;11.572;2022-12-07T07:56:54;7.43;;;5.20;;
16839;SDS011;8536;52.150;11.572;2022-12-07T07:59:20;8.10;;;4.97;;
16839;SDS011;8536;52.150;11.572;2022-12-07T08:01:47;6.73;;;5.73;;
16839;SDS011;8536;52.150;11.572;2022-12-07T08:04:13;8.30;;;5.33;;
16839;SDS011;8536;52.150;11.572;2022-12-07T08:06:40;7.30;;;5.93;;
16839;SDS011;8536;52.150;11.572;2022-12-07T08:09:08;7.47;;;5.10;;
16839;SDS011;8536;52.150;11.572;2022-12-07T08:11:35;6.93;;;5.30;;
16839;SDS011;8536;52.150;11.572;2022-12-07T08:14:02;7.33;;;5.80;;
16839;SDS011;8536;52.150;11.572;2022-12-07T08:16:29;10.63;;;5.13;;
16839;SDS011;8536;52.150;11.572;2022-12-07T08:18:55;7.57;;;5.67;;
16839;SDS011;8536;52.150;11.572;2022-12-07T08:21:22;7.57;;;5.50;;
16839;SDS011;8536;52.150;11.572;2022-12-07T08:23:48;11.03;;;5.80;;
16839;SDS011;8536;52.150;11.572;2022-12-07T08:26:15;7.47;;;5.73;;
16839;SDS011;8536;52.150;11.572;2022-12-07T08:28:42;11.80;;;6.33;;
16839;SDS011;8536;52.150;11.572;2022-12-07T08:31:13;7.00;;;5.10;;
16839;SDS011;8536;52.150;11.572;2022-12-07T08:33:42;7.03;;;5.67;;
16839;SDS011;8536;52.150;11.572;2022-12-07T08:36:09;10.27;;;6.40;;
16839;SDS011;8536;52.150;11.572;2022-12-07T08:38:37;7.00;;;5.37;;
16839;SDS011;8536;52.150;11.572;2022-12-07T08:41:05;11.83;;;5.70;;
16839;SDS011;8536;52.150;11.572;2022-12-07T08:43:31;7.73;;;5.63;;
16839;SDS011;8536;52.150;11.572;2022-12-07T08:46:03;8.07;;;5.77;;
16839;SDS011;8536;52.150;11.572;2022-12-07T08:48:33;7.50;;;5.03;;
16839;SDS011;8536;52.150;11.572;2022-12-07T08:51:02;5.03;;;3.50;;
16839;SDS011;8536;52.150;11.572;2022-12-07T08:53:29;4.80;;;3.17;;
16839;SDS011;8536;52.150;11.572;2022-12-07T08:55:56;4.87;;;3.23;;
16839;SDS011;8536;52.150;11.572;2022-12-07T08:58:22;3.50;;;2.63;;
16839;SDS011;8536;52.150;11.572;2022-12-07T09:00:49;4.40;;;2.80;;
16839;SDS011;8536;52.150;11.572;2022-12-07T09:03:15;3.40;;;2.37;;
16839;SDS011;8536;52.150;11.572;2022-12-07T09:05:42;3.53;;;2.63;;
16839;SDS011;8536;52.150;11.572;2022-12-07T09:08:08;3.63;;;2.43;;
16839;SDS011;8536;52.150;11.572;2022-12-07T09:10:35;3.77;;;2.80;;
16839;SDS011;8536;52.150;11.572;2022-12-07T09:13:02;5.17;;;3.20;;
16839;SDS011;8536;52.150;11.572;2022-12-07T09:15:28;4.63;;;3.70;;
16839;SDS011;8536;52.150;11.572;2022-12-07T09:17:55;7.20;;;4.77;;
16839;SDS011;8536;52.150;11.572;2022-12-07T09:20:21;8.77;;;6.87;;
16839;SDS011;8536;52.150;11.572;2022-12-07T09:22:53;7.87;;;5.30;;
16839;SDS011;8536;52.150;11.572;2022-12-07T09:25:19;3.97;;;3.40;;
16839;SDS011;8536;52.150;11.572;2022-12-07T09:27:46;5.07;;;4.17;;
16839;SDS011;8536;52.150;11.572;2022-12-07T09:30:12;6.03;;;3.67;;
16839;SDS011;8536;52.150;11.572;2022-12-07T09:32:39;6.43;;;3.40;;
16839;SDS011;8536;52.150;11.572;2022-12-07T09:35:06;4.00;;;3.20;;
16839;SDS011;8536;52.150;11.572;2022-12-07T09:37:32;3.63;;;2.70;;
16839;SDS011;8536;52.150;11.572;2022-12-07T09:40:02;4.50;;;2.63;;
16839;SDS011;8536;52.150;11.572;2022-12-07T09:42:35;3.40;;;3.10;;
16839;SDS011;8536;52.150;11.572;2022-12-07T09:45:10;4.80;;;3.20;;
16839;SDS011;8536;52.150;11.572;2022-12-07T09:47:38;3.67;;;2.97;;
16839;SDS011;8536;52.150;11.572;2022-12-07T09:50:12;3.73;;;3.03;;
16839;SDS011;8536;52.150;11.572;2022-12-07T09:52:41;5.37;;;3.33;;
16839;SDS011;8536;52.150;11.572;2022-12-07T09:55:13;5.93;;;3.77;;
16839;SDS011;8536;52.150;11.572;2022-12-07T09:57:51;4.33;;;3.63;;
16839;SDS011;8536;52.150;11.572;2022-12-07T10:00:19;5.23;;;3.20;;
16839;SDS011;8536;52.150;11.572;2022-12-07T10:02:50;5.60;;;3.30;;
16839;SDS011;8536;52.150;11.572;2022-12-07T10:05:18;6.73;;;3.17;;
16839;SDS011;8536;52.150;11.572;2022-12-07T10:07:50;4.10;;;3.40;;
16839;SDS011;8536;52.150;11.572;2022-12-07T10:10:26;4.37;;;3.20;;
16839;SDS011;8536;52.150;11.572;2022-12-07T10:13:01;6.30;;;3.23;;
16839;SDS011;8536;52.150;11.572;2022-12-07T10:20:46;3.90;;;2.97;;
16839;SDS011;8536;52.150;11.572;2022-12-07T10:23:17;4.20;;;3.23;;
16839;SDS011;8536;52.150;11.572;2022-12-07T10:25:44;4.83;;;3.40;;
16839;SDS011;8536;52.150;11.572;2022-12-07T10:28:13;8.23;;;3.10;;
16839;SDS011;8536;52.150;11.572;2022-12-07T10:30:55;4.17;;;2.80;;
16839;SDS011;8536;52.150;11.572;2022-12-07T10:33:36;7.47;;;3.10;;
16839;SDS011;8536;52.150;11.572;2022-12-07T10:38:46;3.40;;;2.70;;
16839;SDS011;8536;52.150;11.572;2022-12-07T10:41:14;3.40;;;2.50;;
16839;SDS011;8536;52.150;11.572;2022-12-07T10:43:51;4.90;;;3.40;;
16839;SDS011;8536;52.150;11.572;2022-12-07T10:46:23;3.83;;;2.70;;
16839;SDS011;8536;52.150;11.572;2022-12-07T10:49:25;4.60;;;2.83;;
16839;SDS011;8536;52.150;11.572;2022-12-07T10:52:11;2.87;;;2.40;;
16839;SDS011;8536;52.150;11.572;2022-12-07T10:54:43;2.63;;;2.30;;
16839;SDS011;8536;52.150;11.572;2022-12-07T11:02:36;3.10;;;1.97;;
16839;SDS011;8536;52.150;11.572;2022-12-07T11:07:59;2.80;;;1.73;;
16839;SDS011;8536;52.150;11.572;2022-12-07T11:10:32;2.30;;;2.00;;
16839;SDS011;8536;52.150;11.572;2022-12-07T11:13:56;3.60;;;2.33;;
16839;SDS011;8536;52.150;11.572;2022-12-07T11:21:56;4.00;;;3.13;;
16839;SDS011;8536;52.150;11.572;2022-12-07T11:24:25;2.83;;;2.23;;
16839;SDS011;8536;52.150;11.572;2022-12-07T11:26:59;3.03;;;2.37;;
16839;SDS011;8536;52.150;11.572;2022-12-07T11:32:39;4.03;;;2.73;;
16839;SDS011;8536;52.150;11.572;2022-12-07T11:35:20;3.30;;;2.50;;
16839;SDS011;8536;52.150;11.572;2022-12-07T11:37:51;5.20;;;2.57;;
16839;SDS011;8536;52.150;11.572;2022-12-07T11:40:26;5.67;;;2.70;;
16839;SDS011;8536;52.150;11.572;2022-12-07T11:42:58;3.67;;;2.07;;
16839;SDS011;8536;52.150;11.572;2022-12-07T11:45:27;2.50;;;2.00;;
16839;SDS011;8536;52.150;11.572;2022-12-07T11:47:58;3.83;;;1.87;;
16839;SDS011;8536;52.150;11.572;2022-12-07T11:50:27;2.30;;;2.07;;
16839;SDS011;8536;52.150;11.572;2022-12-07T11:55:42;4.13;;;1.60;;
16839;SDS011;8536;52.150;11.572;2022-12-07T12:03:57;7.77;;;1.50;;
16839;SDS011;8536;52.150;11.572;2022-12-07T12:06:30;2.67;;;1.40;;
16839;SDS011;8536;52.150;11.572;2022-12-07T12:18:11;1.27;;;1.00;;
16839;SDS011;8536;52.150;11.572;2022-12-07T12:23:39;1.40;;;1.10;;
16839;SDS011;8536;52.150;11.572;2022-12-07T12:26:21;2.67;;;1.17;;
16839;SDS011;8536;52.150;11.572;2022-12-07T12:28:54;3.33;;;1.13;;
16839;SDS011;8536;52.150;11.572;2022-12-07T12:31:33;3.20;;;1.23;;
16839;SDS011;8536;52.150;11.572;2022-12-07T12:34:03;2.70;;;1.07;;
16839;SDS011;8536;52.150;11.572;2022-12-07T12:36:50;3.67;;;1.43;;
16839;SDS011;8536;52.150;11.572;2022-12-07T12:39:17;1.63;;;1.03;;
16839;SDS011;8536;52.150;11.572;2022-12-07T12:46:53;2.07;;;1.00;;
16839;SDS011;8536;52.150;11.572;2022-12-07T12:54:57;3.17;;;0.90;;
16839;SDS011;8536;52.150;11.572;2022-12-07T12:57:27;3.70;;;1.10;;
16839;SDS011;8536;52.150;11.572;2022-12-07T13:02:22;4.17;;;1.00;;
16839;SDS011;8536;52.150;11.572;2022-12-07T13:04:55;2.57;;;0.93;;
16839;SDS011;8536;52.150;11.572;2022-12-07T13:18:35;7.23;;;2.00;;
16839;SDS011;8536;52.150;11.572;2022-12-07T13:23:38;2.07;;;0.83;;
16839;SDS011;8536;52.150;11.572;2022-12-07T13:31:39;3.30;;;0.80;;
16839;SDS011;8536;52.150;11.572;2022-12-07T13:36:54;2.03;;;0.70;;
16839;SDS011;8536;52.150;11.572;2022-12-07T13:39:21;2.03;;;0.90;;
16839;SDS011;8536;52.150;11.572;2022-12-07T13:41:50;2.63;;;1.00;;
16839;SDS011;8536;52.150;11.572;2022-12-07T13:44:23;2.30;;;1.23;;
16839;SDS011;8536;52.150;11.572;2022-12-07T13:46:53;2.60;;;1.13;;
16839;SDS011;8536;52.150;11.572;2022-12-07T13:49:37;1.93;;;1.13;;
16839;SDS011;8536;52.150;11.572;2022-12-07T13:52:16;1.77;;;1.20;;
16839;SDS011;8536;52.150;11.572;2022-12-07T13:54:45;2.93;;;1.43;;
16839;SDS011;8536;52.150;11.572;2022-12-07T13:57:13;3.03;;;1.73;;
16839;SDS011;8536;52.150;11.572;2022-12-07T13:59:39;3.57;;;1.90;;
16839;SDS011;8536;52.150;11.572;2022-12-07T14:05:08;2.10;;;1.87;;
16839;SDS011;8536;52.150;11.572;2022-12-07T14:07:47;3.00;;;2.17;;
16839;SDS011;8536;52.150;11.572;2022-12-07T14:10:28;2.90;;;2.37;;
16839;SDS011;8536;52.150;11.572;2022-12-07T14:12:55;4.43;;;2.80;;
16839;SDS011;8536;52.150;11.572;2022-12-07T14:15:44;6.63;;;2.70;;
16839;SDS011;8536;52.150;11.572;2022-12-07T14:18:25;5.57;;;3.03;;
16839;SDS011;8536;52.150;11.572;2022-12-07T14:21:02;3.73;;;2.60;;
16839;SDS011;8536;52.150;11.572;2022-12-07T14:23:29;4.23;;;2.40;;
16839;SDS011;8536;52.150;11.572;2022-12-07T14:26:05;4.97;;;2.23;;
16839;SDS011;8536;52.150;11.572;2022-12-07T14:28:39;7.43;;;2.23;;
16839;SDS011;8536;52.150;11.572;2022-12-07T14:31:16;6.40;;;2.70;;
16839;SDS011;8536;52.150;11.572;2022-12-07T14:33:58;2.60;;;1.93;;
16839;SDS011;8536;52.150;11.572;2022-12-07T14:36:25;6.10;;;2.53;;
16839;SDS011;8536;52.150;11.572;2022-12-07T14:38:51;4.77;;;1.87;;
16839;SDS011;8536;52.150;11.572;2022-12-07T14:41:20;5.17;;;1.97;;
16839;SDS011;8536;52.150;11.572;2022-12-07T14:44:13;3.40;;;1.80;;
16839;SDS011;8536;52.150;11.572;2022-12-07T14:46:52;4.60;;;1.63;;
16839;SDS011;8536;52.150;11.572;2022-12-07T14:49:39;2.37;;;1.30;;
16839;SDS011;8536;52.150;11.572;2022-12-07T14:52:06;3.20;;;1.40;;
16839;SDS011;8536;52.150;11.572;2022-12-07T14:54:59;2.30;;;1.17;;
16839;SDS011;8536;52.150;11.572;2022-12-07T14:57:26;3.73;;;1.53;;
16839;SDS011;8536;52.150;11.572;2022-12-07T14:59:53;2.43;;;1.30;;
16839;SDS011;8536;52.150;11.572;2022-12-07T15:02:19;4.70;;;1.60;;
16839;SDS011;8536;52.150;11.572;2022-12-07T15:04:46;3.10;;;1.07;;
16839;SDS011;8536;52.150;11.572;2022-12-07T15:07:18;2.33;;;0.83;;
16839;SDS011;8536;52.150;11.572;2022-12-07T15:09:46;3.97;;;2.00;;
16839;SDS011;8536;52.150;11.572;2022-12-07T15:12:13;5.43;;;2.57;;
16839;SDS011;8536;52.150;11.572;2022-12-07T15:14:40;3.33;;;1.93;;
16839;SDS011;8536;52.150;11.572;2022-12-07T15:17:06;4.40;;;1.40;;
16839;SDS011;8536;52.150;11.572;2022-12-07T15:19:48;5.43;;;1.77;;
16839;SDS011;8536;52.150;11.572;2022-12-07T15:22:14;3.77;;;1.60;;
16839;SDS011;8536;52.150;11.572;2022-12-07T15:24:41;2.23;;;1.57;;
16839;SDS011;8536;52.150;11.572;2022-12-07T15:27:07;2.23;;;1.60;;
16839;SDS011;8536;52.150;11.572;2022-12-07T15:29:34;3.43;;;2.10;;
16839;SDS011;8536;52.150;11.572;2022-12-07T15:32:00;4.50;;;2.37;;
16839;SDS011;8536;52.150;11.572;2022-12-07T15:34:27;4.00;;;2.27;;
16839;SDS011;8536;52.150;11.572;2022-12-07T15:37:03;4.37;;;2.47;;
16839;SDS011;8536;52.150;11.572;2022-12-07T15:39:30;4.83;;;2.87;;
16839;SDS011;8536;52.150;11.572;2022-12-07T15:41:57;4.03;;;2.47;;
16839;SDS011;8536;52.150;11.572;2022-12-07T15:44:23;4.43;;;2.80;;
16839;SDS011;8536;52.150;11.572;2022-12-07T15:47:08;3.30;;;3.00;;
16839;SDS011;8536;52.150;11.572;2022-12-07T15:49:35;4.57;;;3.90;;
16839;SDS011;8536;52.150;11.572;2022-12-07T15:52:01;10.67;;;4.50;;
16839;SDS011;8536;52.150;11.572;2022-12-07T15:54:28;6.73;;;4.67;;
16839;SDS011;8536;52.150;11.572;2022-12-07T15:56:55;8.10;;;4.93;;
16839;SDS011;8536;52.150;11.572;2022-12-07T15:59:22;6.73;;;3.83;;
16839;SDS011;8536;52.150;11.572;2022-12-07T16:01:49;5.63;;;3.87;;
16839;SDS011;8536;52.150;11.572;2022-12-07T16:04:15;6.70;;;3.60;;
16839;SDS011;8536;52.150;11.572;2022-12-07T16:06:42;3.17;;;2.43;;
16839;SDS011;8536;52.150;11.572;2022-12-07T16:09:08;3.30;;;1.77;;
16839;SDS011;8536;52.150;11.572;2022-12-07T16:11:35;1.47;;;0.93;;
16839;SDS011;8536;52.150;11.572;2022-12-07T16:14:01;1.90;;;1.00;;
16839;SDS011;8536;52.150;11.572;2022-12-07T16:16:28;1.97;;;0.80;;
16839;SDS011;8536;52.150;11.572;2022-12-07T16:18:55;1.03;;;0.60;;
16839;SDS011;8536;52.150;11.572;2022-12-07T16:21:21;2.70;;;0.60;;
16839;SDS011;8536;52.150;11.572;2022-12-07T16:23:50;4.03;;;1.23;;
16839;SDS011;8536;52.150;11.572;2022-12-07T16:26:18;2.00;;;0.97;;
16839;SDS011;8536;52.150;11.572;2022-12-07T16:28:48;4.83;;;1.27;;
16839;SDS011;8536;52.150;11.572;2022-12-07T16:31:16;2.43;;;1.17;;
16839;SDS011;8536;52.150;11.572;2022-12-07T16:33:44;3.43;;;1.20;;
16839;SDS011;8536;52.150;11.572;2022-12-07T16:36:11;1.47;;;0.80;;
16839;SDS011;8536;52.150;11.572;2022-12-07T16:38:39;1.37;;;0.77;;
16839;SDS011;8536;52.150;11.572;2022-12-07T16:41:06;2.60;;;0.93;;
16839;SDS011;8536;52.150;11.572;2022-12-07T16:43:33;1.53;;;0.83;;